sensor_id;sensor_type;location;lat;lon;timestamp;P1;durP1;ratioP1;P2;durP2;ratioP2
71343;SDS011;59146;43.850;25.948;2022-07-23T00:00:06;12.88;;;4.63;;
71343;SDS011;59146;43.850;25.948;2022-07-23T00:02:33;14.07;;;4.78;;
71343;SDS011;59146;43.850;25.948;2022-07-23T00:04:58;12.43;;;4.78;;
71343;SDS011;59146;43.850;25.948;2022-07-23T00:07:24;12.65;;;5.03;;
71343;SDS011;59146;43.850;25.948;2022-07-23T00:09:49;21.15;;;4.82;;
71343;SDS011;59146;43.850;25.948;2022-07-23T00:12:15;8.65;;;4.50;;
71343;SDS011;59146;43.850;25.948;2022-07-23T00:14:40;20.73;;;5.47;;
71343;SDS011;59146;43.850;25.948;2022-07-23T00:17:05;12.50;;;4.63;;
71343;SDS011;59146;43.850;25.948;2022-07-23T00:19:31;12.68;;;4.60;;
71343;SDS011;59146;43.850;25.948;2022-07-23T00:21:56;14.50;;;5.35;;
71343;SDS011;59146;43.850;25.948;2022-07-23T00:24:22;12.82;;;5.47;;
71343;SDS011;59146;43.850;25.948;2022-07-23T00:26:47;13.80;;;4.53;;
71343;SDS011;59146;43.850;25.948;2022-07-23T00:29:13;14.05;;;4.85;;
71343;SDS011;59146;43.850;25.948;2022-07-23T00:31:38;15.77;;;4.65;;
71343;SDS011;59146;43.850;25.948;2022-07-23T00:34:04;17.25;;;5.47;;
71343;SDS011;59146;43.850;25.948;2022-07-23T00:36:29;20.40;;;5.05;;
71343;SDS011;59146;43.850;25.948;2022-07-23T00:38:56;16.50;;;5.00;;
71343;SDS011;59146;43.850;25.948;2022-07-23T00:41:22;18.95;;;4.72;;
71343;SDS011;59146;43.850;25.948;2022-07-23T00:43:48;11.93;;;4.47;;
71343;SDS011;59146;43.850;25.948;2022-07-23T00:46:18;12.20;;;5.00;;
71343;SDS011;59146;43.850;25.948;2022-07-23T00:48:44;15.50;;;4.68;;
71343;SDS011;59146;43.850;25.948;2022-07-23T00:51:09;13.32;;;4.95;;
71343;SDS011;59146;43.850;25.948;2022-07-23T00:53:35;23.90;;;6.13;;
71343;SDS011;59146;43.850;25.948;2022-07-23T00:56:00;28.38;;;5.95;;
71343;SDS011;59146;43.850;25.948;2022-07-23T00:58:26;16.65;;;5.78;;
71343;SDS011;59146;43.850;25.948;2022-07-23T01:00:52;24.52;;;5.50;;
71343;SDS011;59146;43.850;25.948;2022-07-23T01:03:17;21.23;;;5.10;;
71343;SDS011;59146;43.850;25.948;2022-07-23T01:05:43;17.35;;;5.97;;
71343;SDS011;59146;43.850;25.948;2022-07-23T01:08:09;22.08;;;4.85;;
71343;SDS011;59146;43.850;25.948;2022-07-23T01:10:35;22.85;;;5.25;;
71343;SDS011;59146;43.850;25.948;2022-07-23T01:15:27;17.20;;;4.72;;
71343;SDS011;59146;43.850;25.948;2022-07-23T01:17:53;14.27;;;4.10;;
71343;SDS011;59146;43.850;25.948;2022-07-23T01:20:18;19.83;;;5.18;;
71343;SDS011;59146;43.850;25.948;2022-07-23T01:22:44;9.10;;;3.60;;
71343;SDS011;59146;43.850;25.948;2022-07-23T01:25:10;8.35;;;3.42;;
71343;SDS011;59146;43.850;25.948;2022-07-23T01:27:36;9.82;;;3.63;;
71343;SDS011;59146;43.850;25.948;2022-07-23T01:30:02;14.32;;;4.15;;
71343;SDS011;59146;43.850;25.948;2022-07-23T01:32:28;16.13;;;3.90;;
71343;SDS011;59146;43.850;25.948;2022-07-23T01:34:54;12.75;;;3.38;;
71343;SDS011;59146;43.850;25.948;2022-07-23T01:37:19;24.10;;;3.75;;
71343;SDS011;59146;43.850;25.948;2022-07-23T01:39:45;11.25;;;2.90;;
71343;SDS011;59146;43.850;25.948;2022-07-23T01:42:10;8.25;;;3.08;;
71343;SDS011;59146;43.850;25.948;2022-07-23T01:44:36;14.57;;;3.33;;
71343;SDS011;59146;43.850;25.948;2022-07-23T01:47:01;14.07;;;3.80;;
71343;SDS011;59146;43.850;25.948;2022-07-23T01:49:27;14.65;;;4.03;;
71343;SDS011;59146;43.850;25.948;2022-07-23T01:51:52;12.82;;;3.70;;
71343;SDS011;59146;43.850;25.948;2022-07-23T01:54:30;12.93;;;4.15;;
71343;SDS011;59146;43.850;25.948;2022-07-23T01:56:58;14.93;;;3.47;;
71343;SDS011;59146;43.850;25.948;2022-07-23T01:59:24;7.82;;;3.20;;
71343;SDS011;59146;43.850;25.948;2022-07-23T02:01:50;17.83;;;4.53;;
71343;SDS011;59146;43.850;25.948;2022-07-23T02:04:18;45.72;;;14.00;;
71343;SDS011;59146;43.850;25.948;2022-07-23T02:06:45;61.83;;;21.63;;
71343;SDS011;59146;43.850;25.948;2022-07-23T02:09:10;88.68;;;34.03;;
71343;SDS011;59146;43.850;25.948;2022-07-23T02:11:36;93.53;;;29.42;;
71343;SDS011;59146;43.850;25.948;2022-07-23T02:14:01;90.32;;;32.67;;
71343;SDS011;59146;43.850;25.948;2022-07-23T02:16:27;97.93;;;35.85;;
71343;SDS011;59146;43.850;25.948;2022-07-23T02:18:52;114.93;;;37.85;;
71343;SDS011;59146;43.850;25.948;2022-07-23T02:21:18;121.25;;;38.15;;
71343;SDS011;59146;43.850;25.948;2022-07-23T02:23:43;125.40;;;39.70;;
71343;SDS011;59146;43.850;25.948;2022-07-23T02:26:09;73.45;;;26.10;;
71343;SDS011;59146;43.850;25.948;2022-07-23T02:28:34;42.35;;;14.10;;
71343;SDS011;59146;43.850;25.948;2022-07-23T02:31:00;34.38;;;11.02;;
71343;SDS011;59146;43.850;25.948;2022-07-23T02:33:25;30.85;;;10.50;;
71343;SDS011;59146;43.850;25.948;2022-07-23T02:35:51;15.43;;;5.00;;
71343;SDS011;59146;43.850;25.948;2022-07-23T02:38:16;16.25;;;3.50;;
71343;SDS011;59146;43.850;25.948;2022-07-23T02:40:41;10.85;;;3.95;;
71343;SDS011;59146;43.850;25.948;2022-07-23T02:43:07;9.52;;;3.53;;
71343;SDS011;59146;43.850;25.948;2022-07-23T02:45:32;16.17;;;3.83;;
71343;SDS011;59146;43.850;25.948;2022-07-23T02:47:58;19.45;;;4.35;;
71343;SDS011;59146;43.850;25.948;2022-07-23T02:50:23;7.53;;;2.67;;
71343;SDS011;59146;43.850;25.948;2022-07-23T02:52:49;16.17;;;3.97;;
71343;SDS011;59146;43.850;25.948;2022-07-23T02:55:14;11.60;;;3.13;;
71343;SDS011;59146;43.850;25.948;2022-07-23T02:57:39;16.25;;;3.72;;
71343;SDS011;59146;43.850;25.948;2022-07-23T03:00:05;12.85;;;3.55;;
71343;SDS011;59146;43.850;25.948;2022-07-23T03:02:32;11.07;;;3.45;;
71343;SDS011;59146;43.850;25.948;2022-07-23T03:04:58;19.42;;;3.80;;
71343;SDS011;59146;43.850;25.948;2022-07-23T03:07:23;13.57;;;3.00;;
71343;SDS011;59146;43.850;25.948;2022-07-23T03:09:49;12.60;;;3.20;;
71343;SDS011;59146;43.850;25.948;2022-07-23T03:12:15;21.50;;;3.67;;
71343;SDS011;59146;43.850;25.948;2022-07-23T03:14:40;14.63;;;3.75;;
71343;SDS011;59146;43.850;25.948;2022-07-23T03:17:06;22.23;;;3.00;;
71343;SDS011;59146;43.850;25.948;2022-07-23T03:19:32;15.40;;;3.80;;
71343;SDS011;59146;43.850;25.948;2022-07-23T03:21:57;18.42;;;3.35;;
71343;SDS011;59146;43.850;25.948;2022-07-23T03:24:23;11.02;;;3.42;;
71343;SDS011;59146;43.850;25.948;2022-07-23T03:27:08;11.57;;;3.35;;
71343;SDS011;59146;43.850;25.948;2022-07-23T03:29:34;18.40;;;5.38;;
71343;SDS011;59146;43.850;25.948;2022-07-23T03:31:59;66.03;;;10.32;;
71343;SDS011;59146;43.850;25.948;2022-07-23T03:34:24;41.75;;;7.70;;
71343;SDS011;59146;43.850;25.948;2022-07-23T03:36:50;43.15;;;6.55;;
71343;SDS011;59146;43.850;25.948;2022-07-23T03:39:15;26.88;;;4.45;;
71343;SDS011;59146;43.850;25.948;2022-07-23T03:41:41;14.27;;;4.47;;
71343;SDS011;59146;43.850;25.948;2022-07-23T03:44:06;22.95;;;4.18;;
71343;SDS011;59146;43.850;25.948;2022-07-23T03:46:31;29.17;;;5.68;;
71343;SDS011;59146;43.850;25.948;2022-07-23T03:48:57;36.22;;;6.80;;
71343;SDS011;59146;43.850;25.948;2022-07-23T03:51:22;50.03;;;12.90;;
71343;SDS011;59146;43.850;25.948;2022-07-23T03:53:48;40.45;;;12.52;;
71343;SDS011;59146;43.850;25.948;2022-07-23T03:56:14;54.00;;;16.25;;
71343;SDS011;59146;43.850;25.948;2022-07-23T03:58:39;44.67;;;14.57;;
71343;SDS011;59146;43.850;25.948;2022-07-23T04:01:05;31.77;;;13.13;;
71343;SDS011;59146;43.850;25.948;2022-07-23T04:03:30;23.35;;;6.53;;
71343;SDS011;59146;43.850;25.948;2022-07-23T04:05:56;15.32;;;3.80;;
71343;SDS011;59146;43.850;25.948;2022-07-23T04:08:21;14.98;;;3.65;;
71343;SDS011;59146;43.850;25.948;2022-07-23T04:10:47;10.30;;;3.20;;
71343;SDS011;59146;43.850;25.948;2022-07-23T04:13:12;30.13;;;8.90;;
71343;SDS011;59146;43.850;25.948;2022-07-23T04:15:38;31.83;;;12.57;;
71343;SDS011;59146;43.850;25.948;2022-07-23T04:18:04;33.60;;;11.73;;
71343;SDS011;59146;43.850;25.948;2022-07-23T04:20:29;26.50;;;9.90;;
71343;SDS011;59146;43.850;25.948;2022-07-23T04:22:55;29.38;;;10.32;;
71343;SDS011;59146;43.850;25.948;2022-07-23T04:25:20;28.77;;;10.13;;
71343;SDS011;59146;43.850;25.948;2022-07-23T04:27:46;31.33;;;9.43;;
71343;SDS011;59146;43.850;25.948;2022-07-23T04:30:11;22.42;;;9.02;;
71343;SDS011;59146;43.850;25.948;2022-07-23T04:32:36;26.42;;;7.53;;
71343;SDS011;59146;43.850;25.948;2022-07-23T04:35:02;17.77;;;6.53;;
71343;SDS011;59146;43.850;25.948;2022-07-23T04:37:28;11.57;;;4.78;;
71343;SDS011;59146;43.850;25.948;2022-07-23T04:39:53;30.85;;;7.88;;
71343;SDS011;59146;43.850;25.948;2022-07-23T04:42:18;18.17;;;5.97;;
71343;SDS011;59146;43.850;25.948;2022-07-23T04:44:44;26.08;;;5.60;;
71343;SDS011;59146;43.850;25.948;2022-07-23T04:47:09;11.98;;;4.03;;
71343;SDS011;59146;43.850;25.948;2022-07-23T04:49:35;15.57;;;3.63;;
71343;SDS011;59146;43.850;25.948;2022-07-23T04:52:01;9.43;;;3.55;;
71343;SDS011;59146;43.850;25.948;2022-07-23T04:54:26;11.20;;;3.30;;
71343;SDS011;59146;43.850;25.948;2022-07-23T04:56:52;12.57;;;3.40;;
71343;SDS011;59146;43.850;25.948;2022-07-23T04:59:18;16.15;;;4.25;;
71343;SDS011;59146;43.850;25.948;2022-07-23T05:01:43;18.00;;;3.15;;
71343;SDS011;59146;43.850;25.948;2022-07-23T05:04:08;12.00;;;2.90;;
71343;SDS011;59146;43.850;25.948;2022-07-23T05:06:34;22.70;;;3.67;;
71343;SDS011;59146;43.850;25.948;2022-07-23T05:08:59;10.00;;;2.80;;
71343;SDS011;59146;43.850;25.948;2022-07-23T05:11:25;9.32;;;3.45;;
71343;SDS011;59146;43.850;25.948;2022-07-23T05:13:50;11.80;;;3.17;;
71343;SDS011;59146;43.850;25.948;2022-07-23T05:16:16;7.32;;;3.13;;
71343;SDS011;59146;43.850;25.948;2022-07-23T05:18:42;10.15;;;4.15;;
71343;SDS011;59146;43.850;25.948;2022-07-23T05:21:07;10.75;;;4.07;;
71343;SDS011;59146;43.850;25.948;2022-07-23T05:23:32;14.88;;;3.58;;
71343;SDS011;59146;43.850;25.948;2022-07-23T05:25:58;12.77;;;4.05;;
71343;SDS011;59146;43.850;25.948;2022-07-23T05:28:23;12.27;;;3.53;;
71343;SDS011;59146;43.850;25.948;2022-07-23T05:30:49;9.43;;;3.00;;
71343;SDS011;59146;43.850;25.948;2022-07-23T05:33:14;16.10;;;3.10;;
71343;SDS011;59146;43.850;25.948;2022-07-23T05:35:40;11.93;;;4.07;;
71343;SDS011;59146;43.850;25.948;2022-07-23T05:38:05;11.13;;;3.92;;
71343;SDS011;59146;43.850;25.948;2022-07-23T05:40:30;11.27;;;3.65;;
71343;SDS011;59146;43.850;25.948;2022-07-23T05:42:57;12.35;;;3.50;;
71343;SDS011;59146;43.850;25.948;2022-07-23T05:45:23;17.33;;;3.70;;
71343;SDS011;59146;43.850;25.948;2022-07-23T05:47:48;7.03;;;3.63;;
71343;SDS011;59146;43.850;25.948;2022-07-23T05:50:15;15.55;;;3.13;;
71343;SDS011;59146;43.850;25.948;2022-07-23T05:52:41;7.53;;;2.90;;
71343;SDS011;59146;43.850;25.948;2022-07-23T05:55:08;8.70;;;2.92;;
71343;SDS011;59146;43.850;25.948;2022-07-23T05:57:35;10.18;;;3.63;;
71343;SDS011;59146;43.850;25.948;2022-07-23T06:00:00;9.27;;;3.60;;
71343;SDS011;59146;43.850;25.948;2022-07-23T06:02:26;10.50;;;3.85;;
71343;SDS011;59146;43.850;25.948;2022-07-23T06:04:52;9.35;;;2.80;;
71343;SDS011;59146;43.850;25.948;2022-07-23T06:07:17;15.05;;;3.40;;
71343;SDS011;59146;43.850;25.948;2022-07-23T06:09:42;11.80;;;3.00;;
71343;SDS011;59146;43.850;25.948;2022-07-23T06:12:08;6.40;;;3.25;;
71343;SDS011;59146;43.850;25.948;2022-07-23T06:14:34;9.82;;;3.33;;
71343;SDS011;59146;43.850;25.948;2022-07-23T06:16:59;13.15;;;3.83;;
71343;SDS011;59146;43.850;25.948;2022-07-23T06:19:25;16.63;;;5.00;;
71343;SDS011;59146;43.850;25.948;2022-07-23T06:21:51;15.23;;;4.95;;
71343;SDS011;59146;43.850;25.948;2022-07-23T06:24:16;17.05;;;6.65;;
71343;SDS011;59146;43.850;25.948;2022-07-23T06:26:42;13.18;;;7.15;;
71343;SDS011;59146;43.850;25.948;2022-07-23T06:29:07;16.42;;;6.63;;
71343;SDS011;59146;43.850;25.948;2022-07-23T06:31:33;22.30;;;6.78;;
71343;SDS011;59146;43.850;25.948;2022-07-23T06:33:58;19.02;;;5.70;;
71343;SDS011;59146;43.850;25.948;2022-07-23T06:36:24;23.08;;;6.25;;
71343;SDS011;59146;43.850;25.948;2022-07-23T06:38:49;11.95;;;5.55;;
71343;SDS011;59146;43.850;25.948;2022-07-23T06:41:15;18.20;;;5.00;;
71343;SDS011;59146;43.850;25.948;2022-07-23T06:43:40;17.48;;;6.28;;
71343;SDS011;59146;43.850;25.948;2022-07-23T06:46:05;14.38;;;6.72;;
71343;SDS011;59146;43.850;25.948;2022-07-23T06:48:31;16.80;;;6.10;;
71343;SDS011;59146;43.850;25.948;2022-07-23T06:50:56;15.57;;;6.85;;
71343;SDS011;59146;43.850;25.948;2022-07-23T06:53:22;17.38;;;6.13;;
71343;SDS011;59146;43.850;25.948;2022-07-23T06:55:47;42.10;;;8.50;;
71343;SDS011;59146;43.850;25.948;2022-07-23T06:58:13;18.05;;;6.05;;
71343;SDS011;59146;43.850;25.948;2022-07-23T07:00:39;18.35;;;7.10;;
71343;SDS011;59146;43.850;25.948;2022-07-23T07:03:05;21.85;;;7.10;;
71343;SDS011;59146;43.850;25.948;2022-07-23T07:05:30;14.00;;;5.88;;
71343;SDS011;59146;43.850;25.948;2022-07-23T07:07:56;19.98;;;6.25;;
71343;SDS011;59146;43.850;25.948;2022-07-23T07:10:22;25.35;;;6.38;;
71343;SDS011;59146;43.850;25.948;2022-07-23T07:12:48;15.13;;;4.93;;
71343;SDS011;59146;43.850;25.948;2022-07-23T07:15:13;21.85;;;5.32;;
71343;SDS011;59146;43.850;25.948;2022-07-23T07:17:38;21.05;;;5.63;;
71343;SDS011;59146;43.850;25.948;2022-07-23T07:20:04;20.75;;;5.97;;
71343;SDS011;59146;43.850;25.948;2022-07-23T07:22:31;17.63;;;6.00;;
71343;SDS011;59146;43.850;25.948;2022-07-23T07:24:56;14.18;;;6.30;;
71343;SDS011;59146;43.850;25.948;2022-07-23T07:27:22;19.92;;;6.30;;
71343;SDS011;59146;43.850;25.948;2022-07-23T07:29:47;13.15;;;5.78;;
71343;SDS011;59146;43.850;25.948;2022-07-23T07:32:13;14.45;;;5.60;;
71343;SDS011;59146;43.850;25.948;2022-07-23T07:34:38;28.38;;;5.57;;
71343;SDS011;59146;43.850;25.948;2022-07-23T07:37:04;18.60;;;6.03;;
71343;SDS011;59146;43.850;25.948;2022-07-23T07:39:29;12.18;;;5.47;;
71343;SDS011;59146;43.850;25.948;2022-07-23T07:41:54;11.75;;;4.57;;
71343;SDS011;59146;43.850;25.948;2022-07-23T07:44:20;12.48;;;4.80;;
71343;SDS011;59146;43.850;25.948;2022-07-23T07:46:45;17.95;;;4.55;;
71343;SDS011;59146;43.850;25.948;2022-07-23T07:49:11;16.38;;;5.15;;
71343;SDS011;59146;43.850;25.948;2022-07-23T07:51:36;15.30;;;4.65;;
71343;SDS011;59146;43.850;25.948;2022-07-23T07:54:02;18.33;;;5.15;;
71343;SDS011;59146;43.850;25.948;2022-07-23T07:56:27;30.67;;;6.35;;
71343;SDS011;59146;43.850;25.948;2022-07-23T07:58:53;25.95;;;6.80;;
71343;SDS011;59146;43.850;25.948;2022-07-23T08:01:18;28.25;;;8.70;;
71343;SDS011;59146;43.850;25.948;2022-07-23T08:03:46;51.47;;;13.70;;
71343;SDS011;59146;43.850;25.948;2022-07-23T08:06:12;31.52;;;8.65;;
71343;SDS011;59146;43.850;25.948;2022-07-23T08:08:40;14.73;;;5.60;;
71343;SDS011;59146;43.850;25.948;2022-07-23T08:11:06;19.83;;;6.45;;
71343;SDS011;59146;43.850;25.948;2022-07-23T08:13:31;26.15;;;6.85;;
71343;SDS011;59146;43.850;25.948;2022-07-23T08:15:57;36.08;;;7.10;;
71343;SDS011;59146;43.850;25.948;2022-07-23T08:18:22;33.85;;;9.10;;
71343;SDS011;59146;43.850;25.948;2022-07-23T08:20:47;50.70;;;11.05;;
71343;SDS011;59146;43.850;25.948;2022-07-23T08:23:13;46.90;;;13.45;;
71343;SDS011;59146;43.850;25.948;2022-07-23T08:25:41;43.08;;;10.38;;
71343;SDS011;59146;43.850;25.948;2022-07-23T08:28:08;27.55;;;7.20;;
71343;SDS011;59146;43.850;25.948;2022-07-23T08:30:35;26.05;;;6.70;;
71343;SDS011;59146;43.850;25.948;2022-07-23T08:33:02;22.52;;;6.13;;
71343;SDS011;59146;43.850;25.948;2022-07-23T08:35:33;19.40;;;6.47;;
71343;SDS011;59146;43.850;25.948;2022-07-23T08:38:04;17.33;;;4.93;;
71343;SDS011;59146;43.850;25.948;2022-07-23T08:40:32;30.42;;;6.20;;
71343;SDS011;59146;43.850;25.948;2022-07-23T08:43:00;15.65;;;4.85;;
71343;SDS011;59146;43.850;25.948;2022-07-23T08:45:37;17.52;;;5.70;;
71343;SDS011;59146;43.850;25.948;2022-07-23T08:48:05;20.80;;;5.85;;
71343;SDS011;59146;43.850;25.948;2022-07-23T08:50:33;21.95;;;6.20;;
71343;SDS011;59146;43.850;25.948;2022-07-23T08:53:01;18.45;;;5.75;;
71343;SDS011;59146;43.850;25.948;2022-07-23T08:55:27;26.77;;;6.43;;
71343;SDS011;59146;43.850;25.948;2022-07-23T08:58:49;17.38;;;5.47;;
71343;SDS011;59146;43.850;25.948;2022-07-23T09:01:15;13.82;;;5.53;;
71343;SDS011;59146;43.850;25.948;2022-07-23T09:03:40;21.42;;;5.90;;
71343;SDS011;59146;43.850;25.948;2022-07-23T09:06:10;14.98;;;5.05;;
71343;SDS011;59146;43.850;25.948;2022-07-23T09:08:41;19.65;;;5.47;;
71343;SDS011;59146;43.850;25.948;2022-07-23T09:11:09;24.58;;;5.13;;
71343;SDS011;59146;43.850;25.948;2022-07-23T09:16:06;10.57;;;4.40;;
71343;SDS011;59146;43.850;25.948;2022-07-23T09:18:42;19.25;;;4.97;;
71343;SDS011;59146;43.850;25.948;2022-07-23T09:21:10;17.27;;;5.60;;
71343;SDS011;59146;43.850;25.948;2022-07-23T09:23:46;17.88;;;4.25;;
71343;SDS011;59146;43.850;25.948;2022-07-23T09:26:17;19.98;;;4.57;;
71343;SDS011;59146;43.850;25.948;2022-07-23T09:28:53;12.27;;;4.63;;
71343;SDS011;59146;43.850;25.948;2022-07-23T09:31:20;6.85;;;3.80;;
71343;SDS011;59146;43.850;25.948;2022-07-23T09:33:46;13.40;;;4.07;;
71343;SDS011;59146;43.850;25.948;2022-07-23T09:36:11;11.98;;;4.03;;
71343;SDS011;59146;43.850;25.948;2022-07-23T09:38:47;12.80;;;4.15;;
71343;SDS011;59146;43.850;25.948;2022-07-23T09:41:14;9.23;;;3.50;;
71343;SDS011;59146;43.850;25.948;2022-07-23T09:43:39;11.07;;;3.45;;
71343;SDS011;59146;43.850;25.948;2022-07-23T09:46:18;9.38;;;3.60;;
71343;SDS011;59146;43.850;25.948;2022-07-23T09:48:45;16.48;;;3.83;;
71343;SDS011;59146;43.850;25.948;2022-07-23T09:51:11;8.77;;;3.45;;
71343;SDS011;59146;43.850;25.948;2022-07-23T09:53:38;8.65;;;3.47;;
71343;SDS011;59146;43.850;25.948;2022-07-23T09:56:03;8.07;;;3.80;;
71343;SDS011;59146;43.850;25.948;2022-07-23T09:58:30;10.45;;;3.30;;
71343;SDS011;59146;43.850;25.948;2022-07-23T10:00:56;16.83;;;4.75;;
71343;SDS011;59146;43.850;25.948;2022-07-23T10:03:23;12.00;;;3.80;;
71343;SDS011;59146;43.850;25.948;2022-07-23T10:05:48;11.55;;;3.95;;
71343;SDS011;59146;43.850;25.948;2022-07-23T10:08:16;11.82;;;4.63;;
71343;SDS011;59146;43.850;25.948;2022-07-23T10:10:45;22.83;;;4.65;;
71343;SDS011;59146;43.850;25.948;2022-07-23T10:13:11;12.07;;;3.75;;
71343;SDS011;59146;43.850;25.948;2022-07-23T10:15:46;6.68;;;3.38;;
71343;SDS011;59146;43.850;25.948;2022-07-23T10:18:12;15.73;;;4.32;;
71343;SDS011;59146;43.850;25.948;2022-07-23T10:20:37;12.13;;;4.35;;
71343;SDS011;59146;43.850;25.948;2022-07-23T10:26:12;18.38;;;7.72;;
71343;SDS011;59146;43.850;25.948;2022-07-23T10:39:32;11.15;;;4.47;;
71343;SDS011;59146;43.850;25.948;2022-07-23T10:42:14;10.10;;;3.67;;
71343;SDS011;59146;43.850;25.948;2022-07-23T10:58:46;14.50;;;4.63;;
71343;SDS011;59146;43.850;25.948;2022-07-23T11:11:39;6.60;;;3.78;;
71343;SDS011;59146;43.850;25.948;2022-07-23T11:14:05;12.95;;;4.60;;
71343;SDS011;59146;43.850;25.948;2022-07-23T11:16:30;10.02;;;3.55;;
71343;SDS011;59146;43.850;25.948;2022-07-23T11:18:57;9.73;;;3.80;;
71343;SDS011;59146;43.850;25.948;2022-07-23T11:31:53;12.93;;;4.03;;
71343;SDS011;59146;43.850;25.948;2022-07-23T11:37:04;13.13;;;5.13;;
71343;SDS011;59146;43.850;25.948;2022-07-23T11:39:31;11.50;;;3.90;;
71343;SDS011;59146;43.850;25.948;2022-07-23T11:41:57;10.10;;;3.90;;
71343;SDS011;59146;43.850;25.948;2022-07-23T11:44:31;10.00;;;4.18;;
71343;SDS011;59146;43.850;25.948;2022-07-23T11:47:06;11.40;;;3.70;;
71343;SDS011;59146;43.850;25.948;2022-07-23T11:49:33;9.82;;;4.50;;
71343;SDS011;59146;43.850;25.948;2022-07-23T11:52:03;7.13;;;3.97;;
71343;SDS011;59146;43.850;25.948;2022-07-23T11:54:32;12.38;;;4.57;;
71343;SDS011;59146;43.850;25.948;2022-07-23T11:56:59;13.95;;;3.80;;
71343;SDS011;59146;43.850;25.948;2022-07-23T11:59:26;10.20;;;3.97;;
71343;SDS011;59146;43.850;25.948;2022-07-23T12:01:59;21.00;;;5.10;;
71343;SDS011;59146;43.850;25.948;2022-07-23T12:04:36;8.80;;;5.28;;
71343;SDS011;59146;43.850;25.948;2022-07-23T12:09:52;13.35;;;3.80;;
71343;SDS011;59146;43.850;25.948;2022-07-23T12:12:19;13.52;;;4.22;;
71343;SDS011;59146;43.850;25.948;2022-07-23T12:15:03;15.77;;;4.15;;
71343;SDS011;59146;43.850;25.948;2022-07-23T12:17:30;9.93;;;4.03;;
71343;SDS011;59146;43.850;25.948;2022-07-23T12:19:59;11.93;;;3.80;;
71343;SDS011;59146;43.850;25.948;2022-07-23T12:22:26;7.13;;;3.72;;
71343;SDS011;59146;43.850;25.948;2022-07-23T12:24:59;11.55;;;4.55;;
71343;SDS011;59146;43.850;25.948;2022-07-23T12:27:27;13.48;;;3.95;;
71343;SDS011;59146;43.850;25.948;2022-07-23T12:29:53;23.20;;;4.35;;
71343;SDS011;59146;43.850;25.948;2022-07-23T12:32:19;10.43;;;3.97;;
71343;SDS011;59146;43.850;25.948;2022-07-23T12:34:50;10.23;;;3.47;;
71343;SDS011;59146;43.850;25.948;2022-07-23T12:37:27;8.98;;;3.90;;
71343;SDS011;59146;43.850;25.948;2022-07-23T12:39:57;11.57;;;4.50;;
71343;SDS011;59146;43.850;25.948;2022-07-23T12:42:23;11.10;;;3.55;;
71343;SDS011;59146;43.850;25.948;2022-07-23T12:45:04;7.73;;;3.90;;
71343;SDS011;59146;43.850;25.948;2022-07-23T12:47:30;8.77;;;4.40;;
71343;SDS011;59146;43.850;25.948;2022-07-23T12:49:55;11.90;;;3.75;;
71343;SDS011;59146;43.850;25.948;2022-07-23T12:52:21;10.65;;;4.30;;
71343;SDS011;59146;43.850;25.948;2022-07-23T12:54:46;11.70;;;4.20;;
71343;SDS011;59146;43.850;25.948;2022-07-23T12:57:12;9.30;;;3.75;;
71343;SDS011;59146;43.850;25.948;2022-07-23T12:59:37;7.85;;;3.47;;
71343;SDS011;59146;43.850;25.948;2022-07-23T13:02:03;5.85;;;3.80;;
71343;SDS011;59146;43.850;25.948;2022-07-23T13:04:28;13.15;;;4.32;;
71343;SDS011;59146;43.850;25.948;2022-07-23T13:06:57;7.93;;;4.25;;
71343;SDS011;59146;43.850;25.948;2022-07-23T13:09:26;13.05;;;4.22;;
71343;SDS011;59146;43.850;25.948;2022-07-23T13:11:55;12.40;;;4.35;;
71343;SDS011;59146;43.850;25.948;2022-07-23T13:14:22;14.27;;;4.53;;
71343;SDS011;59146;43.850;25.948;2022-07-23T13:20:10;8.70;;;4.20;;
71343;SDS011;59146;43.850;25.948;2022-07-23T13:22:36;13.25;;;4.38;;
71343;SDS011;59146;43.850;25.948;2022-07-23T13:28:23;10.90;;;4.15;;
71343;SDS011;59146;43.850;25.948;2022-07-23T13:30:49;14.52;;;4.38;;
71343;SDS011;59146;43.850;25.948;2022-07-23T13:33:19;9.52;;;4.38;;
71343;SDS011;59146;43.850;25.948;2022-07-23T13:35:46;9.40;;;4.22;;
71343;SDS011;59146;43.850;25.948;2022-07-23T13:38:12;14.38;;;4.45;;
71343;SDS011;59146;43.850;25.948;2022-07-23T13:40:39;15.45;;;4.30;;
71343;SDS011;59146;43.850;25.948;2022-07-23T13:43:07;8.30;;;3.90;;
71343;SDS011;59146;43.850;25.948;2022-07-23T13:45:34;12.95;;;4.18;;
71343;SDS011;59146;43.850;25.948;2022-07-23T13:48:00;20.40;;;5.00;;
71343;SDS011;59146;43.850;25.948;2022-07-23T13:50:26;11.35;;;4.35;;
71343;SDS011;59146;43.850;25.948;2022-07-23T13:52:52;12.38;;;5.00;;
71343;SDS011;59146;43.850;25.948;2022-07-23T13:55:17;15.45;;;4.90;;
71343;SDS011;59146;43.850;25.948;2022-07-23T13:57:43;13.88;;;5.22;;
71343;SDS011;59146;43.850;25.948;2022-07-23T14:00:09;10.07;;;4.22;;
71343;SDS011;59146;43.850;25.948;2022-07-23T14:02:36;11.13;;;4.05;;
71343;SDS011;59146;43.850;25.948;2022-07-23T14:05:04;10.77;;;4.90;;
71343;SDS011;59146;43.850;25.948;2022-07-23T14:07:31;8.93;;;4.18;;
71343;SDS011;59146;43.850;25.948;2022-07-23T14:09:56;9.32;;;3.97;;
71343;SDS011;59146;43.850;25.948;2022-07-23T14:12:22;9.60;;;4.53;;
71343;SDS011;59146;43.850;25.948;2022-07-23T14:14:47;6.72;;;3.70;;
71343;SDS011;59146;43.850;25.948;2022-07-23T14:44:08;10.48;;;4.43;;
71343;SDS011;59146;43.850;25.948;2022-07-23T14:46:33;14.73;;;5.05;;
71343;SDS011;59146;43.850;25.948;2022-07-23T14:48:59;11.13;;;4.10;;
71343;SDS011;59146;43.850;25.948;2022-07-23T14:51:24;12.20;;;4.10;;
71343;SDS011;59146;43.850;25.948;2022-07-23T14:53:50;12.38;;;4.03;;
71343;SDS011;59146;43.850;25.948;2022-07-23T14:56:15;13.68;;;4.63;;
71343;SDS011;59146;43.850;25.948;2022-07-23T14:58:41;11.55;;;4.25;;
71343;SDS011;59146;43.850;25.948;2022-07-23T15:01:07;15.60;;;4.22;;
71343;SDS011;59146;43.850;25.948;2022-07-23T15:03:33;10.05;;;4.28;;
71343;SDS011;59146;43.850;25.948;2022-07-23T15:05:58;14.60;;;4.82;;
71343;SDS011;59146;43.850;25.948;2022-07-23T15:08:24;13.68;;;4.20;;
71343;SDS011;59146;43.850;25.948;2022-07-23T15:10:50;10.70;;;3.70;;
71343;SDS011;59146;43.850;25.948;2022-07-23T15:13:16;7.07;;;3.70;;
71343;SDS011;59146;43.850;25.948;2022-07-23T15:15:42;5.85;;;3.70;;
71343;SDS011;59146;43.850;25.948;2022-07-23T15:18:07;5.75;;;3.63;;
71343;SDS011;59146;43.850;25.948;2022-07-23T15:20:33;10.82;;;4.43;;
71343;SDS011;59146;43.850;25.948;2022-07-23T15:22:59;21.25;;;5.00;;
71343;SDS011;59146;43.850;25.948;2022-07-23T15:25:24;10.73;;;4.75;;
71343;SDS011;59146;43.850;25.948;2022-07-23T15:27:49;14.35;;;4.65;;
71343;SDS011;59146;43.850;25.948;2022-07-23T15:30:15;10.43;;;3.92;;
71343;SDS011;59146;43.850;25.948;2022-07-23T15:32:41;12.38;;;5.18;;
71343;SDS011;59146;43.850;25.948;2022-07-23T15:35:07;17.63;;;4.95;;
71343;SDS011;59146;43.850;25.948;2022-07-23T15:37:33;16.27;;;4.95;;
71343;SDS011;59146;43.850;25.948;2022-07-23T15:39:59;16.30;;;4.68;;
71343;SDS011;59146;43.850;25.948;2022-07-23T15:42:24;23.13;;;4.95;;
71343;SDS011;59146;43.850;25.948;2022-07-23T15:44:50;13.40;;;4.25;;
71343;SDS011;59146;43.850;25.948;2022-07-23T15:47:16;16.30;;;4.65;;
71343;SDS011;59146;43.850;25.948;2022-07-23T15:49:43;12.68;;;4.03;;
71343;SDS011;59146;43.850;25.948;2022-07-23T15:52:09;14.02;;;5.00;;